Time;durP1;ratioP1;P1;durP2;ratioP2;P2;SDS_P1;SDS_P2;PMS_P1;PMS_P2;Temp;Humidity;BMP_temperature;BMP_pressure;BME280_temperature;BME280_humidity;BME280_pressure;Samples;Min_cycle;Max_cycle;Signal;HPM_P1;HPM_P2
2023/05/19 00:01:31;;;;;;;3.42;0.70;;;7.00;99.90;;;;;;5095006;28;20104;-66
2023/05/19 00:04:01;;;;;;;2.33;0.50;;;7.00;99.90;;;;;;5114076;28;20035;-66
2023/05/19 00:06:31;;;;;;;1.35;0.65;;;7.00;99.90;;;;;;5095537;28;20055;-66
2023/05/19 00:09:01;;;;;;;0.82;0.50;;;6.90;99.90;;;;;;5095359;28;20039;-66
2023/05/19 00:11:28;;;;;;;1.90;0.75;;;6.90;99.90;;;;;;5113972;28;20097;-66
2023/05/19 00:13:57;;;;;;;0.57;0.47;;;6.90;99.90;;;;;;5078251;28;20039;-66
2023/05/19 00:16:25;;;;;;;1.23;0.63;;;6.90;99.90;;;;;;5078444;28;20082;-66
2023/05/19 00:18:52;;;;;;;0.88;0.57;;;6.80;99.90;;;;;;5095621;28;20035;-66
2023/05/19 00:21:18;;;;;;;0.85;0.70;;;6.80;99.90;;;;;;5095149;28;20091;-66
2023/05/19 00:23:44;;;;;;;1.30;0.70;;;6.80;99.90;;;;;;5113594;28;20039;-66
2023/05/19 00:26:10;;;;;;;1.05;0.60;;;6.80;99.90;;;;;;5095485;28;20036;-66
2023/05/19 00:28:36;;;;;;;1.33;0.68;;;6.80;99.90;;;;;;5112975;28;20495;-66
2023/05/19 00:31:04;;;;;;;1.90;1.20;;;6.80;99.90;;;;;;5095200;28;20043;-66
2023/05/19 00:33:30;;;;;;;2.03;0.93;;;6.80;99.90;;;;;;5113279;28;20601;-66
2023/05/19 00:35:55;;;;;;;1.27;0.93;;;6.80;99.90;;;;;;5094557;28;20047;-66
2023/05/19 00:38:21;;;;;;;1.85;0.60;;;6.80;99.90;;;;;;5095147;28;20093;-66
2023/05/19 00:40:47;;;;;;;1.15;0.50;;;6.80;99.90;;;;;;5094973;28;20561;-66
2023/05/19 00:43:13;;;;;;;1.38;0.65;;;6.80;99.90;;;;;;5112358;28;20672;-66
2023/05/19 00:45:40;;;;;;;1.70;0.75;;;6.80;99.90;;;;;;5077793;28;20092;-66
2023/05/19 00:48:05;;;;;;;1.00;0.52;;;6.80;99.90;;;;;;5112862;28;20036;-66
2023/05/19 00:50:32;;;;;;;4.05;1.10;;;6.80;99.90;;;;;;5077170;28;20054;-66
2023/05/19 00:52:58;;;;;;;0.77;0.60;;;6.80;99.90;;;;;;5095196;28;20046;-66
2023/05/19 00:55:27;;;;;;;1.95;0.95;;;6.80;99.90;;;;;;5077916;28;20466;-66
2023/05/19 00:57:55;;;;;;;1.50;0.65;;;6.80;99.90;;;;;;5112286;28;20097;-66
2023/05/19 01:00:21;;;;;;;1.98;0.85;;;6.80;99.90;;;;;;5094419;28;20032;-66
2023/05/19 01:02:46;;;;;;;1.58;0.55;;;6.70;99.90;;;;;;5077199;28;20069;-66
2023/05/19 01:05:12;;;;;;;1.25;0.68;;;6.70;99.90;;;;;;5094730;28;20040;-66
2023/05/19 01:07:40;;;;;;;2.17;0.65;;;6.70;99.90;;;;;;5094711;28;20510;-66
2023/05/19 01:10:06;;;;;;;2.67;0.80;;;6.70;99.90;;;;;;5093991;28;20419;-66
2023/05/19 01:12:33;;;;;;;1.95;1.20;;;6.70;99.90;;;;;;5094431;28;20103;-66
2023/05/19 01:14:59;;;;;;;1.58;0.77;;;6.60;99.90;;;;;;5094176;28;20039;-66
2023/05/19 01:17:58;;;;;;;1.83;0.70;;;6.60;99.90;;;;;;5093553;28;20603;-66
2023/05/19 01:20:37;;;;;;;1.40;0.80;;;6.60;99.90;;;;;;5090483;28;20048;-66
2023/05/19 01:23:35;;;;;;;1.05;0.63;;;6.60;99.90;;;;;;5094089;28;20122;-66
2023/05/19 01:26:28;;;;;;;1.15;0.70;;;6.50;99.90;;;;;;5077612;28;20462;-66
2023/05/19 01:29:06;;;;;;;1.77;0.95;;;6.50;99.90;;;;;;5093773;28;20074;-66
2023/05/19 01:31:34;;;;;;;4.07;1.08;;;6.50;99.90;;;;;;5111484;28;20488;-66
2023/05/19 01:34:03;;;;;;;1.13;0.65;;;6.50;99.90;;;;;;5094048;28;20678;-66
2023/05/19 01:36:31;;;;;;;0.95;0.70;;;6.40;99.90;;;;;;5093981;28;20044;-66
2023/05/19 01:38:59;;;;;;;2.60;0.95;;;6.40;99.90;;;;;;5093575;28;20695;-66
2023/05/19 01:41:27;;;;;;;3.00;1.10;;;6.40;99.90;;;;;;5093974;28;20344;-66
2023/05/19 01:43:53;;;;;;;1.65;0.85;;;6.40;99.90;;;;;;5093868;28;20036;-66
2023/05/19 01:46:20;;;;;;;3.03;0.98;;;6.40;99.90;;;;;;5111424;28;20035;-65
2023/05/19 01:48:47;;;;;;;2.28;1.05;;;6.40;99.90;;;;;;5076550;28;20062;-66
2023/05/19 01:51:13;;;;;;;1.60;0.80;;;6.40;99.90;;;;;;5076638;28;20046;-66
2023/05/19 01:53:39;;;;;;;2.05;0.70;;;6.50;99.90;;;;;;5093332;28;20110;-66
2023/05/19 01:56:05;;;;;;;1.33;0.88;;;6.50;99.90;;;;;;5093623;28;20456;-66
2023/05/19 01:58:46;;;;;;;1.08;0.47;;;6.50;99.90;;;;;;5076681;28;20046;-66
2023/05/19 02:01:34;;;;;;;1.38;0.82;;;6.50;99.90;;;;;;5076433;28;20574;-66
2023/05/19 02:04:26;;;;;;;1.77;0.63;;;6.50;99.90;;;;;;5093451;28;20392;-65
2023/05/19 02:07:19;;;;;;;3.70;1.55;;;6.50;99.90;;;;;;5092502;28;20044;-66
2023/05/19 02:09:49;;;;;;;5.25;1.50;;;6.50;99.90;;;;;;5093197;28;20043;-66
2023/05/19 02:12:27;;;;;;;2.67;1.27;;;6.50;99.90;;;;;;5093445;28;20044;-65
2023/05/19 02:15:05;;;;;;;1.98;1.00;;;6.50;99.90;;;;;;5092851;28;20031;-66
2023/05/19 02:17:34;;;;;;;1.50;0.65;;;6.40;99.90;;;;;;5111046;28;20040;-65
2023/05/19 02:20:03;;;;;;;1.35;0.80;;;6.40;99.90;;;;;;5092661;28;20047;-65
2023/05/19 02:22:29;;;;;;;1.00;0.68;;;6.30;99.90;;;;;;5093140;28;20444;-65
2023/05/19 02:24:56;;;;;;;2.05;0.82;;;6.30;99.90;;;;;;5111314;28;20391;-65
2023/05/19 02:27:22;;;;;;;2.72;0.90;;;6.30;99.90;;;;;;5092506;28;20035;-65
2023/05/19 02:29:48;;;;;;;2.55;0.75;;;6.20;99.90;;;;;;5093254;28;20467;-65
2023/05/19 02:32:14;;;;;;;0.43;0.40;;;6.20;99.90;;;;;;5092815;28;20116;-65
2023/05/19 02:34:44;;;;;;;2.28;0.75;;;6.20;99.90;;;;;;5075545;28;20383;-65
2023/05/19 02:37:14;;;;;;;1.27;0.70;;;6.20;99.90;;;;;;5092606;28;20059;-65
2023/05/19 02:39:41;;;;;;;1.08;0.70;;;6.20;99.90;;;;;;5076220;28;20113;-65
2023/05/19 02:42:07;;;;;;;2.78;0.75;;;6.20;99.90;;;;;;5092196;28;20049;-65
2023/05/19 02:44:33;;;;;;;2.00;1.00;;;6.20;99.90;;;;;;5110745;28;20416;-65
2023/05/19 02:46:58;;;;;;;3.67;1.23;;;6.10;99.90;;;;;;5092410;28;20059;-65
2023/05/19 02:49:24;;;;;;;3.15;1.10;;;6.10;99.90;;;;;;5091763;28;20058;-65
2023/05/19 02:51:50;;;;;;;2.83;1.10;;;6.10;99.90;;;;;;5110756;28;20046;-64
2023/05/19 02:54:16;;;;;;;3.22;0.90;;;6.10;99.90;;;;;;5092569;28;20130;-65
2023/05/19 02:56:42;;;;;;;1.20;0.82;;;6.10;99.90;;;;;;5109824;28;20579;-64
2023/05/19 02:59:07;;;;;;;0.47;0.40;;;6.10;99.90;;;;;;5092586;28;20038;-65
2023/05/19 03:01:33;;;;;;;1.58;0.68;;;6.10;99.90;;;;;;5110132;28;20038;-64
2023/05/19 03:03:59;;;;;;;1.52;0.70;;;6.10;99.90;;;;;;5110298;28;20450;-64
2023/05/19 03:06:25;;;;;;;4.18;1.00;;;6.10;99.90;;;;;;5075294;28;20096;-65
2023/05/19 03:08:51;;;;;;;1.75;0.85;;;6.10;99.90;;;;;;5091651;28;20064;-64
2023/05/19 03:11:16;;;;;;;1.67;0.95;;;6.10;99.90;;;;;;5092199;28;20126;-64
2023/05/19 03:13:42;;;;;;;1.60;0.70;;;6.10;99.90;;;;;;5092444;28;20665;-64
2023/05/19 03:16:08;;;;;;;1.63;1.08;;;6.10;99.90;;;;;;5091002;28;20492;-64
2023/05/19 03:18:34;;;;;;;5.00;1.13;;;6.10;99.90;;;;;;5109654;28;20031;-64
2023/05/19 03:21:00;;;;;;;3.10;1.08;;;6.10;99.90;;;;;;5110097;28;20081;-64
2023/05/19 03:23:26;;;;;;;0.75;0.43;;;6.10;99.90;;;;;;5074776;28;20040;-64
2023/05/19 03:25:55;;;;;;;2.35;0.90;;;6.10;99.90;;;;;;5110327;28;20028;-64
2023/05/19 03:28:22;;;;;;;2.20;0.70;;;6.10;99.90;;;;;;5110518;28;20118;-64
2023/05/19 03:30:51;;;;;;;1.25;0.70;;;6.20;99.90;;;;;;5091549;28;20078;-64
2023/05/19 03:33:17;;;;;;;1.40;0.85;;;6.20;99.90;;;;;;5110056;28;20635;-64
2023/05/19 03:35:43;;;;;;;1.85;0.93;;;6.20;99.90;;;;;;5109926;28;20035;-64
2023/05/19 03:38:09;;;;;;;1.77;0.93;;;6.20;99.90;;;;;;5074776;28;20089;-64
2023/05/19 03:40:35;;;;;;;2.22;0.75;;;6.20;99.90;;;;;;5110062;28;20071;-64
2023/05/19 03:43:01;;;;;;;1.23;0.77;;;6.20;99.90;;;;;;5091973;28;20067;-64
2023/05/19 03:45:27;;;;;;;1.05;0.45;;;6.20;99.90;;;;;;5091479;28;20439;-64
2023/05/19 03:47:53;;;;;;;1.35;0.90;;;6.20;99.90;;;;;;5091738;28;20120;-64
2023/05/19 03:50:20;;;;;;;1.75;0.60;;;6.20;99.90;;;;;;5109727;28;20059;-64
2023/05/19 03:52:46;;;;;;;2.65;0.75;;;6.10;99.90;;;;;;5074624;28;20074;-64
2023/05/19 03:55:13;;;;;;;1.67;0.70;;;6.10;99.90;;;;;;5074829;28;20043;-64
2023/05/19 03:57:40;;;;;;;1.58;1.20;;;6.10;99.90;;;;;;5090982;28;20051;-64
2023/05/19 04:00:07;;;;;;;2.15;0.75;;;6.10;99.90;;;;;;5110353;28;20051;-64
2023/05/19 04:02:32;;;;;;;2.42;0.60;;;6.10;99.90;;;;;;5091662;28;20040;-64
2023/05/19 04:04:58;;;;;;;1.42;0.60;;;6.10;99.90;;;;;;5109056;28;20055;-64
2023/05/19 04:07:24;;;;;;;1.08;0.70;;;6.00;99.90;;;;;;5091806;28;20149;-64
2023/05/19 04:09:50;;;;;;;1.90;0.70;;;6.10;99.90;;;;;;5091852;28;20096;-64
2023/05/19 04:12:16;;;;;;;0.98;0.57;;;6.10;99.90;;;;;;5090973;28;20504;-63
2023/05/19 04:14:41;;;;;;;2.92;0.73;;;6.20;99.90;;;;;;5109529;28;20054;-64
2023/05/19 04:17:07;;;;;;;1.80;1.05;;;6.20;99.90;;;;;;5091434;28;20054;-63
2023/05/19 04:19:33;;;;;;;1.38;0.60;;;6.20;99.90;;;;;;5090881;28;20035;-64
2023/05/19 04:21:59;;;;;;;2.33;0.90;;;6.20;99.90;;;;;;5091777;28;20040;-63
2023/05/19 04:24:25;;;;;;;2.80;0.98;;;6.30;99.90;;;;;;5109532;28;20468;-64
2023/05/19 04:26:52;;;;;;;2.10;0.70;;;6.30;99.90;;;;;;5091000;28;20035;-64
2023/05/19 04:29:18;;;;;;;0.90;0.68;;;6.40;99.90;;;;;;5094419;28;20048;-64
2023/05/19 04:31:44;;;;;;;0.50;0.40;;;6.40;99.90;;;;;;5113311;28;20092;-63
2023/05/19 04:34:10;;;;;;;1.85;1.00;;;6.40;99.90;;;;;;5094338;28;20035;-64
2023/05/19 04:36:36;;;;;;;1.48;0.65;;;6.50;99.90;;;;;;5078316;28;20046;-64
2023/05/19 04:39:06;;;;;;;1.75;0.75;;;6.50;99.90;;;;;;5113578;28;20051;-64
2023/05/19 04:41:35;;;;;;;1.58;0.80;;;6.60;99.90;;;;;;5094528;28;20570;-64
2023/05/19 04:44:01;;;;;;;2.08;1.10;;;6.60;99.90;;;;;;5078216;28;20395;-64
2023/05/19 04:46:28;;;;;;;1.05;0.75;;;6.70;99.90;;;;;;5094741;28;20044;-63
2023/05/19 04:48:55;;;;;;;1.30;0.80;;;6.70;99.90;;;;;;5094129;28;20486;-64
2023/05/19 04:51:26;;;;;;;2.10;0.95;;;6.70;99.90;;;;;;5113157;28;20122;-64
2023/05/19 04:53:58;;;;;;;1.80;1.13;;;6.80;99.90;;;;;;5112722;28;20864;-64
2023/05/19 04:56:26;;;;;;;1.67;0.95;;;6.80;99.90;;;;;;5112769;28;20118;-64
2023/05/19 04:58:52;;;;;;;1.85;0.70;;;6.90;99.90;;;;;;5095022;28;20028;-64
2023/05/19 05:01:21;;;;;;;2.47;1.00;;;7.00;99.90;;;;;;5112067;28;20054;-64
2023/05/19 05:03:46;;;;;;;2.40;1.20;;;7.10;99.90;;;;;;5094709;28;20390;-64
2023/05/19 05:06:12;;;;;;;1.42;0.73;;;7.20;99.90;;;;;;5094384;28;20039;-64
2023/05/19 05:08:40;;;;;;;2.42;1.23;;;7.30;99.90;;;;;;5094099;28;20058;-64
2023/05/19 05:11:06;;;;;;;4.25;1.85;;;7.40;99.90;;;;;;5094387;28;20077;-64
2023/05/19 05:13:32;;;;;;;6.20;1.33;;;7.60;99.90;;;;;;5094398;28;20503;-64
2023/05/19 05:15:58;;;;;;;2.33;1.23;;;7.70;99.90;;;;;;5076807;28;20039;-64
2023/05/19 05:18:25;;;;;;;3.42;1.52;;;7.80;99.90;;;;;;5112378;28;20086;-64
2023/05/19 05:20:52;;;;;;;2.53;1.38;;;8.00;99.90;;;;;;5112066;28;20036;-65
2023/05/19 05:23:18;;;;;;;4.15;1.85;;;8.10;99.90;;;;;;5093598;28;20541;-65
2023/05/19 05:25:45;;;;;;;2.65;0.93;;;8.30;99.90;;;;;;5093992;28;20043;-65
2023/05/19 05:28:11;;;;;;;2.63;1.40;;;8.40;99.90;;;;;;5112505;28;20027;-65
2023/05/19 05:30:37;;;;;;;3.55;1.23;;;8.50;99.90;;;;;;5093727;28;20472;-65
2023/05/19 05:33:03;;;;;;;2.45;1.20;;;8.60;99.90;;;;;;5112283;28;20117;-66
2023/05/19 05:35:29;;;;;;;4.25;1.48;;;8.80;99.90;;;;;;5112084;28;20185;-66
2023/05/19 05:37:55;;;;;;;1.75;1.05;;;8.90;99.90;;;;;;5093167;28;20044;-66
2023/05/19 05:40:21;;;;;;;2.45;1.17;;;9.10;99.90;;;;;;5092867;28;20042;-66
2023/05/19 05:42:46;;;;;;;3.28;1.33;;;9.20;99.90;;;;;;5111190;28;20120;-66
2023/05/19 05:45:12;;;;;;;8.05;2.20;;;9.30;99.90;;;;;;5112049;28;20031;-66
2023/05/19 05:47:40;;;;;;;2.35;1.10;;;9.50;99.90;;;;;;5111866;28;20039;-66
2023/05/19 05:50:07;;;;;;;2.47;1.52;;;9.70;99.90;;;;;;5092661;28;20089;-66
2023/05/19 05:52:38;;;;;;;3.70;2.03;;;9.80;99.90;;;;;;5111832;28;20040;-66
2023/05/19 05:55:05;;;;;;;2.65;1.40;;;10.00;99.90;;;;;;5093527;28;20050;-66
2023/05/19 05:57:34;;;;;;;4.82;2.20;;;10.20;99.90;;;;;;5092758;28;20044;-65
2023/05/19 06:00:00;;;;;;;2.15;1.17;;;10.30;99.90;;;;;;5111897;28;20086;-66
2023/05/19 06:02:27;;;;;;;4.90;1.60;;;10.40;99.90;;;;;;5093649;28;20118;-65
2023/05/19 06:04:53;;;;;;;3.50;1.67;;;10.60;99.90;;;;;;5110971;28;20514;-65
2023/05/19 06:07:20;;;;;;;2.15;1.38;;;10.80;99.90;;;;;;5093420;28;20048;-65
2023/05/19 06:09:45;;;;;;;3.50;1.15;;;10.90;99.90;;;;;;5093268;28;20044;-65
2023/05/19 06:12:11;;;;;;;4.97;1.63;;;11.00;99.90;;;;;;5110908;28;20040;-65
2023/05/19 06:14:37;;;;;;;3.55;1.25;;;11.10;99.90;;;;;;5093329;28;20487;-65
2023/05/19 06:17:03;;;;;;;3.13;1.77;;;11.20;99.90;;;;;;5111359;28;20506;-66
2023/05/19 06:19:29;;;;;;;1.95;1.23;;;11.40;99.90;;;;;;5092634;28;20444;-66
2023/05/19 06:21:55;;;;;;;2.25;1.15;;;11.50;99.90;;;;;;5093015;28;20530;-65
2023/05/19 06:24:21;;;;;;;2.67;1.30;;;11.60;99.90;;;;;;5093173;28;20081;-65
2023/05/19 06:26:47;;;;;;;2.85;1.17;;;11.90;99.90;;;;;;5092850;28;20411;-66
2023/05/19 06:29:13;;;;;;;2.08;1.50;;;12.20;99.90;;;;;;5075787;28;20048;-65
2023/05/19 06:31:38;;;;;;;2.47;1.05;;;12.40;99.90;;;;;;5092161;28;20067;-65
2023/05/19 06:34:04;;;;;;;1.80;1.10;;;12.60;99.90;;;;;;5092990;28;20132;-64
2023/05/19 06:36:31;;;;;;;5.43;1.20;;;12.80;99.90;;;;;;5092806;28;20050;-66
2023/05/19 06:38:57;;;;;;;3.50;1.63;;;13.00;99.90;;;;;;5092031;28;20039;-64
2023/05/19 06:41:22;;;;;;;4.45;1.58;;;13.30;99.90;;;;;;5092608;28;20039;-64
2023/05/19 06:43:48;;;;;;;1.88;0.90;;;13.50;99.90;;;;;;5110717;28;20043;-65
2023/05/19 06:46:16;;;;;;;1.70;1.25;;;13.70;99.90;;;;;;5110230;28;20040;-65
2023/05/19 06:48:42;;;;;;;2.55;1.40;;;13.80;99.90;;;;;;5092327;28;20061;-65
2023/05/19 06:51:09;;;;;;;2.22;1.15;;;14.00;99.90;;;;;;5092347;28;20122;-66
2023/05/19 06:53:34;;;;;;;3.63;1.42;;;14.10;99.90;;;;;;5092079;28;20047;-66
2023/05/19 06:56:00;;;;;;;4.47;0.95;;;14.20;99.90;;;;;;5092436;28;20093;-66
2023/05/19 06:58:26;;;;;;;3.65;1.55;;;14.30;99.90;;;;;;5075727;28;20074;-66
2023/05/19 07:00:52;;;;;;;2.45;1.23;;;14.60;99.90;;;;;;5074867;28;20035;-66
2023/05/19 07:03:18;;;;;;;2.13;1.05;;;14.70;99.90;;;;;;5110807;28;20035;-66
2023/05/19 07:05:44;;;;;;;2.42;1.55;;;14.80;99.90;;;;;;5075548;28;20035;-65
2023/05/19 07:08:09;;;;;;;2.15;1.00;;;14.90;99.90;;;;;;5091551;28;20100;-64
2023/05/19 07:10:35;;;;;;;2.55;1.35;;;15.00;99.90;;;;;;5110777;28;20043;-65
2023/05/19 07:13:01;;;;;;;3.03;0.80;;;15.10;99.90;;;;;;5075525;28;20361;-65
2023/05/19 07:15:27;;;;;;;2.00;1.23;;;15.30;99.90;;;;;;5091475;28;20039;-66
2023/05/19 07:17:53;;;;;;;1.48;0.90;;;15.50;99.90;;;;;;5091997;28;20070;-66
2023/05/19 07:20:19;;;;;;;1.80;0.82;;;15.70;99.90;;;;;;5075199;28;20130;-65
2023/05/19 07:22:44;;;;;;;2.38;0.90;;;16.00;99.90;;;;;;5091362;28;20040;-64
2023/05/19 07:25:10;;;;;;;1.88;0.85;;;16.20;99.90;;;;;;5092342;28;20120;-65
2023/05/19 07:27:36;;;;;;;6.20;1.20;;;16.50;99.90;;;;;;5091414;28;20407;-66
2023/05/19 07:30:03;;;;;;;3.30;1.05;;;16.70;99.90;;;;;;5109234;28;20043;-65
2023/05/19 07:32:29;;;;;;;2.28;0.40;;;16.70;99.90;;;;;;5091180;28;20043;-64
2023/05/19 07:34:54;;;;;;;2.25;0.73;;;16.90;99.90;;;;;;5108899;28;20038;-65
2023/05/19 07:37:20;;;;;;;2.28;0.60;;;17.00;99.90;;;;;;5073998;28;20043;-65
2023/05/19 07:39:46;;;;;;;1.45;0.55;;;17.20;99.90;;;;;;5090801;28;20036;-65
2023/05/19 07:42:12;;;;;;;1.17;0.52;;;17.50;99.90;;;;;;5090423;28;20039;-65
2023/05/19 07:44:38;;;;;;;1.50;0.55;;;17.70;99.90;;;;;;5090992;28;20044;-65
2023/05/19 07:47:04;;;;;;;0.93;0.47;;;17.80;99.90;;;;;;5090684;28;20296;-65
2023/05/19 07:49:30;;;;;;;1.90;0.75;;;17.80;99.90;;;;;;5086798;28;20667;-65
2023/05/19 07:51:56;;;;;;;2.15;0.85;;;17.90;99.90;;;;;;5087327;28;20135;-65
2023/05/19 07:54:22;;;;;;;2.50;0.85;;;18.00;99.90;;;;;;5087537;28;20044;-65
2023/05/19 07:56:48;;;;;;;3.80;1.33;;;18.10;99.90;;;;;;5069942;28;20127;-65
2023/05/19 07:59:14;;;;;;;0.90;0.47;;;18.20;99.90;;;;;;5087339;28;20040;-65
2023/05/19 08:01:40;;;;;;;0.63;0.40;;;18.30;99.90;;;;;;5087529;28;20515;-65
2023/05/19 08:04:06;;;;;;;5.38;0.57;;;18.30;99.90;;;;;;5089744;28;20036;-64
2023/05/19 08:06:32;;;;;;;0.55;0.40;;;18.30;99.90;;;;;;5092494;28;20089;-64
2023/05/19 08:08:58;;;;;;;2.50;0.43;;;18.30;99.90;;;;;;5091985;28;20476;-64
2023/05/19 08:11:24;;;;;;;2.80;0.70;;;18.30;99.90;;;;;;5091491;28;20122;-63
2023/05/19 08:13:50;;;;;;;3.13;1.02;;;18.30;99.90;;;;;;5092307;28;20636;-63
2023/05/19 08:16:16;;;;;;;1.38;0.70;;;18.40;99.90;;;;;;5091975;28;20044;-63
2023/05/19 08:18:42;;;;;;;2.72;0.65;;;18.70;99.90;;;;;;5091664;28;20161;-63
2023/05/19 08:21:08;;;;;;;1.85;0.60;;;18.80;99.90;;;;;;5091997;28;20568;-64
2023/05/19 08:23:33;;;;;;;1.73;0.70;;;19.10;99.90;;;;;;5091454;28;20040;-63
2023/05/19 08:26:01;;;;;;;2.30;0.60;;;19.10;99.90;;;;;;5091943;28;20054;-64
2023/05/19 08:28:26;;;;;;;2.00;0.73;;;19.20;99.90;;;;;;5091706;28;20048;-63
2023/05/19 08:30:52;;;;;;;2.72;0.95;;;19.20;99.90;;;;;;5075341;28;20040;-63
2023/05/19 08:33:20;;;;;;;3.10;0.65;;;19.20;99.90;;;;;;5053082;28;20509;-64
2023/05/19 08:35:46;;;;;;;1.50;0.40;;;19.20;99.90;;;;;;5052667;28;20045;-63
2023/05/19 08:38:12;;;;;;;3.38;0.80;;;19.00;99.90;;;;;;5050713;28;20124;-64
2023/05/19 08:40:41;;;;;;;3.60;0.55;;;18.90;99.90;;;;;;5051510;28;20127;-63
2023/05/19 08:43:08;;;;;;;3.25;0.55;;;19.00;99.10;;;;;;5051369;28;20551;-64
2023/05/19 08:45:33;;;;;;;4.32;1.23;;;19.10;99.90;;;;;;5050659;28;20037;-64
2023/05/19 08:47:59;;;;;;;2.80;0.52;;;19.20;99.90;;;;;;5051403;28;20047;-63
2023/05/19 08:50:30;;;;;;;0.30;0.28;;;19.20;99.90;;;;;;5089819;28;20060;-63
2023/05/19 08:53:24;;;;;;;2.35;1.15;;;19.30;99.40;;;;;;5074196;28;20078;-62
2023/05/19 08:56:11;;;;;;;1.88;1.00;;;19.30;93.00;;;;;;5092555;28;20512;-64
2023/05/19 08:58:42;;;;;;;2.55;0.77;;;19.30;97.90;;;;;;5091937;28;20080;-64
2023/05/19 09:01:17;;;;;;;1.13;0.50;;;19.30;96.90;;;;;;5074334;28;20106;-64
2023/05/19 09:03:48;;;;;;;1.80;0.65;;;19.40;99.00;;;;;;5074563;28;20071;-63
2023/05/19 09:06:14;;;;;;;1.45;0.80;;;19.40;98.20;;;;;;5092109;28;20072;-65
2023/05/19 09:08:41;;;;;;;1.80;0.55;;;19.40;95.30;;;;;;5074269;28;20098;-64
2023/05/19 09:11:10;;;;;;;2.25;0.60;;;19.40;94.90;;;;;;5057819;28;20426;-64
2023/05/19 09:13:37;;;;;;;1.92;0.65;;;19.50;96.00;;;;;;5073217;28;20040;-64
2023/05/19 09:16:03;;;;;;;1.13;0.80;;;19.70;95.20;;;;;;5055718;28;20464;-65
2023/05/19 09:18:30;;;;;;;1.98;0.73;;;19.90;96.30;;;;;;5092247;28;20040;-64
2023/05/19 09:21:01;;;;;;;1.20;0.55;;;20.20;92.50;;;;;;5091737;28;20063;-64
2023/05/19 09:23:32;;;;;;;3.35;0.82;;;20.30;95.20;;;;;;5074110;28;20118;-63
2023/05/19 09:26:07;;;;;;;2.50;0.90;;;20.50;95.90;;;;;;5096170;28;20050;-64
2023/05/19 09:28:34;;;;;;;2.10;0.45;;;20.70;95.20;;;;;;5093558;28;20039;-64
2023/05/19 09:31:02;;;;;;;1.38;0.40;;;20.80;94.80;;;;;;5077474;28;20082;-64
2023/05/19 09:33:28;;;;;;;1.42;0.70;;;21.00;93.90;;;;;;5094092;28;20055;-64
2023/05/19 09:35:57;;;;;;;0.90;0.40;;;21.00;91.80;;;;;;5093323;28;20071;-64
2023/05/19 09:38:25;;;;;;;2.90;0.85;;;21.10;94.70;;;;;;5112325;28;20069;-64
2023/05/19 09:41:00;;;;;;;1.25;0.60;;;21.10;93.20;;;;;;5093183;28;20532;-65
2023/05/19 09:43:34;;;;;;;3.03;0.75;;;21.20;93.90;;;;;;5094066;28;20088;-65
2023/05/19 09:46:02;;;;;;;0.98;0.55;;;21.20;88.20;;;;;;5076841;28;20168;-65
2023/05/19 09:48:29;;;;;;;2.30;0.60;;;21.10;86.20;;;;;;5108096;28;20638;-64
2023/05/19 09:50:56;;;;;;;2.38;0.63;;;21.00;87.10;;;;;;5090304;28;20341;-64
2023/05/19 09:53:23;;;;;;;1.85;0.60;;;21.10;90.60;;;;;;5078004;28;20040;-65
2023/05/19 09:55:54;;;;;;;1.10;0.68;;;21.20;90.70;;;;;;5075856;28;20040;-64
2023/05/19 09:58:20;;;;;;;0.90;0.43;;;21.30;91.20;;;;;;5072755;28;20028;-63
2023/05/19 10:00:47;;;;;;;2.25;0.60;;;21.40;90.70;;;;;;5073130;28;20055;-65
2023/05/19 10:03:15;;;;;;;2.17;0.60;;;21.60;90.00;;;;;;5090494;28;20480;-64
2023/05/19 10:05:42;;;;;;;1.50;0.70;;;21.60;89.80;;;;;;5096769;28;20111;-64
2023/05/19 10:08:10;;;;;;;0.55;0.40;;;21.70;89.90;;;;;;5111334;28;20042;-64
2023/05/19 10:10:37;;;;;;;3.92;0.98;;;21.80;86.60;;;;;;5092616;28;20047;-65
2023/05/19 10:13:04;;;;;;;1.25;0.52;;;21.80;83.80;;;;;;5076026;28;20043;-64
2023/05/19 10:15:30;;;;;;;0.73;0.40;;;21.90;85.40;;;;;;5093346;28;20044;-63
2023/05/19 10:17:56;;;;;;;3.33;0.93;;;21.90;84.70;;;;;;5092326;28;20123;-65
2023/05/19 10:20:22;;;;;;;1.45;0.85;;;22.00;86.20;;;;;;5093170;28;20118;-65
2023/05/19 10:22:48;;;;;;;1.48;0.68;;;22.20;86.70;;;;;;5092573;28;20118;-65
2023/05/19 10:25:17;;;;;;;1.27;0.40;;;22.40;84.40;;;;;;5076017;28;20077;-63
2023/05/19 10:28:07;;;;;;;1.00;0.52;;;22.60;86.50;;;;;;5092837;28;20505;-65
2023/05/19 10:30:37;;;;;;;1.33;0.63;;;22.60;85.10;;;;;;5092520;28;20078;-65
2023/05/19 10:33:08;;;;;;;0.80;0.40;;;22.70;85.20;;;;;;5075762;28;20075;-65
2023/05/19 10:35:52;;;;;;;0.70;0.45;;;22.80;85.90;;;;;;5092952;28;20050;-65
2023/05/19 10:38:32;;;;;;;1.27;0.60;;;23.10;85.90;;;;;;5110347;28;20031;-64
2023/05/19 10:41:15;;;;;;;2.65;0.70;;;23.20;81.90;;;;;;5092943;28;20044;-65
2023/05/19 10:44:08;;;;;;;0.82;0.40;;;23.10;81.80;;;;;;5088469;28;20111;-65
2023/05/19 10:46:34;;;;;;;2.08;0.38;;;23.10;82.80;;;;;;5072340;28;20048;-66
2023/05/19 10:49:00;;;;;;;1.75;0.52;;;23.10;77.30;;;;;;5090160;28;20048;-64
2023/05/19 10:51:33;;;;;;;2.08;0.65;;;23.00;77.30;;;;;;5071649;28;20055;-65
2023/05/19 10:54:08;;;;;;;1.20;0.43;;;22.80;78.00;;;;;;5072049;28;20047;-66
2023/05/19 10:56:40;;;;;;;3.28;0.50;;;22.70;79.30;;;;;;5055352;28;20066;-66
2023/05/19 10:59:06;;;;;;;0.73;0.40;;;22.60;80.10;;;;;;5071996;28;20036;-65
2023/05/19 11:01:34;;;;;;;1.35;0.50;;;22.60;80.00;;;;;;5090072;28;20403;-64
2023/05/19 11:04:12;;;;;;;1.05;0.40;;;22.60;79.90;;;;;;5090032;28;20529;-66
2023/05/19 11:06:39;;;;;;;1.88;0.40;;;22.70;78.90;;;;;;5071472;28;20044;-65
2023/05/19 11:09:10;;;;;;;1.75;0.50;;;22.80;80.00;;;;;;5071708;28;20044;-65
2023/05/19 11:11:50;;;;;;;1.95;0.70;;;23.00;75.40;;;;;;5071223;28;20040;-65
2023/05/19 11:14:18;;;;;;;2.08;0.68;;;23.10;78.80;;;;;;5071892;28;20122;-65
2023/05/19 11:16:51;;;;;;;5.45;0.70;;;23.20;77.00;;;;;;5071534;28;20047;-65
2023/05/19 11:19:18;;;;;;;0.70;0.38;;;23.30;74.20;;;;;;5090998;28;20104;-65
2023/05/19 11:21:53;;;;;;;2.75;0.60;;;23.30;75.60;;;;;;5071774;28;20158;-65
2023/05/19 11:24:43;;;;;;;2.25;0.40;;;23.40;76.20;;;;;;5089862;28;20051;-65
2023/05/19 11:27:30;;;;;;;1.20;0.57;;;23.40;75.60;;;;;;5089295;28;20503;-65
2023/05/19 11:30:00;;;;;;;0.68;0.35;;;23.30;74.90;;;;;;5089936;28;20043;-65
2023/05/19 11:32:32;;;;;;;1.30;0.55;;;23.30;75.70;;;;;;5089951;28;20036;-64
2023/05/19 11:34:59;;;;;;;2.30;0.47;;;23.30;75.40;;;;;;5071664;28;20046;-65
2023/05/19 11:37:27;;;;;;;1.02;0.30;;;23.50;75.90;;;;;;5089772;28;20106;-65
2023/05/19 11:39:53;;;;;;;1.20;0.52;;;23.50;75.20;;;;;;5074844;28;20128;-66
2023/05/19 11:42:19;;;;;;;2.85;0.50;;;23.40;59.60;;;;;;5094067;28;20127;-66
2023/05/19 11:44:45;;;;;;;2.50;0.75;;;23.30;69.60;;;;;;5075948;28;20043;-65
2023/05/19 11:47:14;;;;;;;1.20;0.63;;;23.20;68.90;;;;;;5075201;28;20039;-65
2023/05/19 11:49:46;;;;;;;2.83;0.50;;;23.10;68.60;;;;;;5093570;28;20078;-65
2023/05/19 11:52:12;;;;;;;0.82;0.32;;;23.00;69.10;;;;;;5076000;28;20126;-65
2023/05/19 11:54:40;;;;;;;1.05;0.52;;;23.00;69.50;;;;;;5093576;28;20047;-65
2023/05/19 11:57:08;;;;;;;0.80;0.45;;;23.00;69.10;;;;;;5093789;28;20132;-65
2023/05/19 11:59:37;;;;;;;0.85;0.30;;;23.00;66.90;;;;;;5075584;28;20052;-65
2023/05/19 12:02:20;;;;;;;;;;;23.00;69.20;;;;;;5075326;28;20044;-66
2023/05/19 12:04:49;;;;;;;0.82;0.50;;;23.10;66.90;;;;;;5075327;28;19916;-65
2023/05/19 12:07:19;;;;;;;1.08;0.52;;;23.20;67.30;;;;;;5075244;28;20059;-66
2023/05/19 12:09:46;;;;;;;0.65;0.45;;;23.00;65.90;;;;;;5058292;28;20036;-65
2023/05/19 12:12:19;;;;;;;2.13;0.50;;;22.70;66.80;;;;;;5075431;28;20032;-65
2023/05/19 12:14:50;;;;;;;1.08;0.52;;;22.40;68.20;;;;;;5075039;28;20445;-65
2023/05/19 12:17:22;;;;;;;1.95;0.50;;;22.20;67.80;;;;;;5075036;28;20042;-65
2023/05/19 12:19:50;;;;;;;1.23;0.30;;;22.10;69.40;;;;;;5058632;28;20105;-65
2023/05/19 12:22:16;;;;;;;1.65;0.35;;;22.20;69.90;;;;;;5074555;28;20044;-66
2023/05/19 12:24:43;;;;;;;0.73;0.50;;;22.20;67.70;;;;;;5075069;28;20043;-65
2023/05/19 12:27:25;;;;;;;2.25;0.82;;;22.10;68.70;;;;;;5075150;28;20048;-65
2023/05/19 12:29:55;;;;;;;2.35;0.73;;;21.90;66.80;;;;;;5074505;28;20198;-65
2023/05/19 12:32:26;;;;;;;0.73;0.40;;;21.70;66.00;;;;;;5093292;28;20036;-65
2023/05/19 12:34:54;;;;;;;1.70;0.60;;;21.60;65.10;;;;;;5058479;28;20040;-65
2023/05/19 12:37:20;;;;;;;1.27;0.35;;;21.50;64.60;;;;;;5092384;28;20055;-65
2023/05/19 12:39:48;;;;;;;1.42;0.40;;;21.40;66.40;;;;;;5074710;28;20067;-65
2023/05/19 12:42:15;;;;;;;4.68;0.40;;;21.40;68.20;;;;;;5074675;28;20032;-65
2023/05/19 12:44:48;;;;;;;0.93;0.57;;;21.50;68.30;;;;;;5092592;28;20036;-65
2023/05/19 12:47:16;;;;;;;0.80;0.40;;;21.70;70.40;;;;;;5074734;28;20269;-65
2023/05/19 12:50:02;;;;;;;1.15;0.50;;;21.90;69.70;;;;;;5091696;28;20059;-65
2023/05/19 12:52:28;;;;;;;0.85;0.55;;;21.90;71.60;;;;;;5074922;28;20430;-65
2023/05/19 12:55:04;;;;;;;1.67;0.63;;;21.90;71.10;;;;;;5074785;28;20364;-65
2023/05/19 12:57:33;;;;;;;2.55;0.77;;;21.90;68.80;;;;;;5057157;28;20468;-64
2023/05/19 13:00:08;;;;;;;1.85;0.88;;;21.70;69.30;;;;;;5074704;28;20192;-64